This demonstration page uses our WeatherBlox Daily Observations layout. Learn more.

Left ArrowRight Arrow

Hourly Observations for November 13, 2015

Temp ( °F °C ) Dew Point ( °F °C ) Humidity (%) Winds ( mph kmh ) Pressure ( in mb ) Visibility ( mi km ) Precip ( " mm )
12:51 am 00:51 Clear 52 11.1 16 -8.9 24 24 SE 12 19 30.04 1017 10 16.0934 N/A
1:51 am 01:51 Clear 47 8.3 17 -8.3 30 30 E 12 19 30.03 1017 10 16.0934 N/A
2:51 am 02:51 Clear 46 7.8 17 -8.3 31 31 ESE 10 17 30.02 1017 10 16.0934 N/A
3:51 am 03:51 Clear 46 7.8 17 -8.3 31 31 E 10 17 30.03 1017 10 16.0934 N/A
4:51 am 04:51 Clear 45 7.2 17 -8.3 33 33 ESE 9 15 30.04 1017 10 16.0934 N/A
5:51 am 05:51 Clear 45 7.2 16 -8.9 31 31 ESE 12 19 30.06 1018 10 16.0934 N/A
7:51 am 07:51 Sunny 47 8.3 18 -7.8 31 31 ESE 7 11 30.1 1019 10 16.0934 N/A
8:51 am 08:51 Sunny 54 12.2 16 -8.9 22 22 ESE 13 20 30.1 1019 10 16.0934 N/A
9:51 am 09:51 Sunny 57 13.9 17 -8.3 21 21 SSE 12 19 30.1 1019 10 16.0934 N/A
10:51 am 10:51 Sunny 61 16.1 17 -8.3 18 18 SE 7 11 30.08 1019 10 16.0934 N/A
11:51 am 11:51 Sunny 65 18.3 19 -7.2 17 17 SSE 13 20 30.04 1017 10 16.0934 N/A
12:51 pm 12:51 Sunny 69 20.6 21 -6.1 16 16 SSE 13 20 29.98 1015 10 16.0934 N/A
1:51 pm 13:51 Sunny 69 20.6 20 -6.7 15 15 SE 10 17 29.97 1015 10 16.0934 N/A
5:51 pm 17:51 Clear 60 15.6 22 -5.6 23 23 E 8 13 29.97 1015 10 16.0934 N/A
6:51 pm 18:51 Clear 59 15 22 -5.6 24 24 E 10 17 29.94 1014 10 16.0934 N/A
7:51 pm 19:51 Clear 55 12.8 24 -4.4 30 30 SSE 7 11 30.01 1016 10 16.0934 N/A
8:51 pm 20:51 Clear 56 13.3 24 -4.4 29 29 SE 8 13 30 1016 10 16.0934 N/A
9:51 pm 21:51 Clear 61 16.1 25 -3.9 25 25 ESE 13 20 29.99 1016 10 16.0934 N/A
10:51 pm 22:51 Clear 55 12.8 25 -3.9 31 31 ESE 10 17 30 1016 10 16.0934 N/A
11:51 pm 23:51 Clear 54 12.2 25 -3.9 33 33 ESE 9 15 29.99 1016 10 16.0934 N/A

Powered by AerisWeather